Time;durP1;ratioP1;P1;durP2;ratioP2;P2;SDS_P1;SDS_P2;PMS_P1;PMS_P2;Temp;Humidity;BMP_temperature;BMP_pressure;BME280_temperature;BME280_humidity;BME280_pressure;Samples;Min_cycle;Max_cycle;Signal;HPM_P1;HPM_P2
2022/04/19 00:01:44;;;;;;;11.70;3.97;;;;;;;11.57;34.83;99484.41;5056806;28;20043;-72
2022/04/19 00:04:11;;;;;;;8.98;3.67;;;;;;;11.48;35.05;99480.13;5056878;28;20200;-72
2022/04/19 00:06:37;;;;;;;13.20;3.92;;;;;;;11.46;35.09;99474.97;5072832;28;20508;-69
2022/04/19 00:09:04;;;;;;;8.25;3.30;;;;;;;11.58;35.18;99478.94;5072665;28;20088;-68
2022/04/19 00:11:30;;;;;;;10.30;3.80;;;;;;;11.49;35.19;99476.44;5039782;28;20497;-68
2022/04/19 00:13:57;;;;;;;7.43;3.92;;;;;;;11.25;35.37;99445.41;5056258;28;20095;-71
2022/04/19 00:16:23;;;;;;;5.80;3.45;;;;;;;11.37;35.64;99465.34;5073264;28;20441;-67
2022/04/19 00:18:49;;;;;;;9.13;3.42;;;;;;;11.43;35.54;99474.47;5057367;28;20064;-71
2022/04/19 00:21:15;;;;;;;8.20;3.83;;;;;;;11.32;35.53;99462.34;5073212;28;20044;-71
2022/04/19 00:23:40;;;;;;;6.82;3.90;;;;;;;11.42;35.44;99470.16;5039319;28;20197;-71
2022/04/19 00:26:06;;;;;;;9.20;3.92;;;;;;;11.20;35.53;99434.44;5057037;28;20100;-72
2022/04/19 00:28:32;;;;;;;8.77;4.07;;;;;;;11.33;35.47;99450.69;5057020;28;20058;-71
2022/04/19 00:30:58;;;;;;;12.50;3.70;;;;;;;11.44;35.55;99466.31;5054693;28;20135;-70
2022/04/19 00:33:23;;;;;;;9.73;3.67;;;;;;;11.33;35.48;99455.19;5087413;28;20036;-70
2022/04/19 00:35:50;;;;;;;9.25;4.00;;;;;;;11.41;35.78;99460.50;5071023;28;20626;-70
2022/04/19 00:38:15;;;;;;;9.30;3.40;;;;;;;11.43;35.78;99472.63;5087222;28;20135;-70
2022/04/19 00:40:43;;;;;;;5.78;3.65;;;;;;;11.44;35.77;99481.47;5086825;28;20509;-70
2022/04/19 00:43:10;;;;;;;9.70;3.90;;;;;;;11.48;36.00;99467.66;5054044;28;20044;-71
2022/04/19 00:45:36;;;;;;;9.93;3.92;;;;;;;11.26;36.30;99440.91;5070646;28;20044;-71
2022/04/19 00:48:03;;;;;;;7.25;3.50;;;;;;;11.45;36.08;99461.84;5072081;28;20089;-70
2022/04/19 00:50:31;;;;;;;6.43;3.65;;;;;;;11.32;36.07;99449.03;5072816;28;20524;-70
2022/04/19 00:52:58;;;;;;;8.65;3.72;;;;;;;11.36;36.28;99461.00;5055582;28;20035;-72
2022/04/19 00:55:25;;;;;;;8.55;3.72;;;;;;;11.35;36.27;99455.84;5072273;28;20425;-71
2022/04/19 00:57:51;;;;;;;9.82;4.00;;;;;;;11.33;36.25;99471.97;5054997;28;20044;-71
2022/04/19 01:00:20;;;;;;;11.45;4.00;;;;;;;11.32;36.53;99459.69;5072253;28;20039;-71
2022/04/19 01:03:01;;;;;;;9.43;4.15;;;;;;;11.20;36.64;99457.50;5072156;28;20576;-70
2022/04/19 01:05:27;;;;;;;8.90;4.25;;;;;;;11.21;36.37;99465.31;5055208;28;20054;-70
2022/04/19 01:07:53;;;;;;;6.43;3.88;;;;;;;11.24;36.64;99453.53;5055026;28;20093;-71
2022/04/19 01:10:24;;;;;;;9.98;4.63;;;;;;;11.25;36.49;99460.50;5072670;28;20148;-70
2022/04/19 01:15:36;;;;;;;11.73;3.72;;;;;;;11.23;37.15;99454.53;5057357;28;20097;-71
2022/04/19 01:18:09;;;;;;;7.93;4.15;;;;;;;11.17;36.78;99453.38;5055761;28;20086;-70
2022/04/19 01:20:38;;;;;;;7.75;4.30;;;;;;;11.14;36.97;99444.91;5054224;28;20040;-71
2022/04/19 01:23:07;;;;;;;9.73;3.83;;;;;;;10.97;37.22;99451.19;5088197;28;20118;-71
2022/04/19 01:25:34;;;;;;;11.85;4.18;;;;;;;10.99;37.26;99438.59;5055644;28;20040;-71
2022/04/19 01:28:00;;;;;;;6.18;3.47;;;;;;;10.92;37.35;99433.09;5072010;28;20424;-71
2022/04/19 01:30:27;;;;;;;10.80;4.72;;;;;;;10.96;37.64;99434.41;5054654;28;20040;-71
2022/04/19 01:32:54;;;;;;;7.60;3.92;;;;;;;10.89;37.51;99437.91;5054863;28;20238;-70
2022/04/19 01:35:21;;;;;;;7.20;4.35;;;;;;;10.94;37.65;99427.59;5054588;28;20417;-70
2022/04/19 01:37:58;;;;;;;9.63;3.90;;;;;;;10.61;37.85;99404.69;5040884;28;20040;-68
2022/04/19 01:40:29;;;;;;;8.68;4.60;;;;;;;10.73;37.86;99432.59;5055595;28;20048;-69
2022/04/19 01:43:01;;;;;;;7.53;3.85;;;;;;;10.97;38.01;99424.63;5071323;28;20036;-69
2022/04/19 01:45:34;;;;;;;7.45;3.70;;;;;;;10.72;38.50;99425.59;5088461;28;20040;-70
2022/04/19 01:48:04;;;;;;;6.97;4.43;;;;;;;10.78;38.29;99431.09;5088758;28;20067;-70
2022/04/19 01:50:32;;;;;;;6.32;3.85;;;;;;;10.72;38.12;99436.22;5038631;28;20058;-70
2022/04/19 01:53:02;;;;;;;8.02;4.03;;;;;;;10.76;38.58;99442.88;5054893;28;20417;-69
2022/04/19 01:55:29;;;;;;;6.30;3.90;;;;;;;10.63;38.79;99448.66;5072470;28;20036;-69
2022/04/19 01:58:00;;;;;;;12.33;4.57;;;;;;;10.71;38.89;99445.19;5055391;28;20044;-70
2022/04/19 02:00:34;;;;;;;7.88;4.18;;;;;;;10.63;39.14;99448.66;5072644;28;20105;-70
2022/04/19 02:03:03;;;;;;;9.55;4.30;;;;;;;10.64;38.86;99449.50;5055199;28;20036;-70
2022/04/19 02:05:30;;;;;;;6.35;3.92;;;;;;;10.68;39.08;99456.13;5072302;28;20448;-71
2022/04/19 02:08:00;;;;;;;8.50;4.22;;;;;;;10.67;38.88;99452.63;5072496;28;20131;-71
2022/04/19 02:10:29;;;;;;;7.80;4.05;;;;;;;10.70;38.84;99456.81;5055287;28;20501;-71
2022/04/19 02:12:56;;;;;;;9.02;4.88;;;;;;;10.69;38.91;99442.69;5054463;28;20105;-71
2022/04/19 02:15:48;;;;;;;10.15;4.47;;;;;;;10.70;38.95;99459.47;5064319;28;20462;-70
2022/04/19 02:18:21;;;;;;;5.50;3.95;;;;;;;10.62;39.23;99454.97;5087588;28;20185;-71
2022/04/19 02:20:47;;;;;;;8.57;4.00;;;;;;;10.62;39.22;99457.63;5037868;28;20142;-71
2022/04/19 02:23:13;;;;;;;10.70;4.70;;;;;;;10.57;39.27;99453.78;5054233;28;20608;-71
2022/04/19 02:25:39;;;;;;;7.55;4.28;;;;;;;10.60;39.42;99462.25;5070996;28;20051;-71
2022/04/19 02:28:10;;;;;;;9.30;4.13;;;;;;;10.33;39.52;99440.44;5054860;28;20409;-71
2022/04/19 02:30:39;;;;;;;;;;;;;;;10.79;39.03;99463.78;5055159;28;20505;-71
2022/04/19 02:33:13;;;;;;;;;;;;;;;10.74;39.20;99472.25;5041952;28;19920;-71
2022/04/19 02:35:41;;;;;;;9.77;4.43;;;;;;;10.55;39.69;99479.69;5041465;28;19931;-70
2022/04/19 02:38:09;;;;;;;6.70;4.13;;;;;;;10.14;39.91;99458.31;5058034;28;20047;-70
2022/04/19 02:40:46;;;;;;;7.63;4.10;;;;;;;10.37;39.75;99481.59;5075563;28;20051;-70
2022/04/19 02:43:13;;;;;;;9.18;5.28;;;;;;;10.41;39.62;99497.03;5074813;28;20105;-69
2022/04/19 02:45:41;;;;;;;11.25;4.90;;;;;;;10.47;39.48;99498.25;5074827;28;20052;-69
2022/04/19 02:48:10;;;;;;;8.77;4.50;;;;;;;10.51;39.42;99489.78;5057964;28;20062;-69
2022/04/19 02:50:42;;;;;;;10.40;4.97;;;;;;;10.72;39.32;99498.13;5075336;28;20044;-69
2022/04/19 02:53:08;;;;;;;10.32;4.60;;;;;;;10.54;39.28;99494.78;5074265;28;20036;-69
2022/04/19 02:55:36;;;;;;;10.05;4.85;;;;;;;10.58;39.26;99497.94;5057951;28;20074;-71
2022/04/19 02:58:03;;;;;;;7.53;4.13;;;;;;;10.69;39.40;99509.09;5074678;28;20500;-70
2022/04/19 03:00:29;;;;;;;14.73;5.85;;;;;;;10.59;39.32;99512.88;5057284;28;20040;-69
2022/04/19 03:02:57;;;;;;;8.48;4.72;;;;;;;10.61;39.45;99511.72;5040778;28;20181;-70
2022/04/19 03:05:23;;;;;;;8.43;4.47;;;;;;;10.59;39.28;99510.22;5073824;28;20051;-70
2022/04/19 03:07:49;;;;;;;12.23;4.35;;;;;;;10.56;39.77;99505.25;5093345;28;20042;-71
2022/04/19 03:10:16;;;;;;;12.15;4.63;;;;;;;10.71;39.62;99515.09;5061007;28;20397;-71
2022/04/19 03:12:43;;;;;;;9.68;4.60;;;;;;;10.66;39.46;99508.56;5077104;28;20051;-70
2022/04/19 03:15:17;;;;;;;10.80;4.50;;;;;;;10.66;39.58;99506.75;5077921;28;20050;-70
2022/04/19 03:17:44;;;;;;;10.43;4.43;;;;;;;10.63;39.49;99511.56;5094299;28;20050;-70
2022/04/19 03:20:11;;;;;;;7.95;4.07;;;;;;;10.72;39.51;99505.28;5057753;28;20055;-70
2022/04/19 03:28:10;;;;;;;8.05;4.50;;;;;;;10.82;39.51;99517.44;5079037;28;20142;-72
2022/04/19 03:30:38;;;;;;;8.18;4.28;;;;;;;10.92;39.58;99514.63;5060664;28;20538;-69
2022/04/19 03:33:04;;;;;;;8.63;3.80;;;;;;;10.83;39.45;99500.50;5092996;28;20040;-69
2022/04/19 03:35:30;;;;;;;10.02;4.85;;;;;;;10.92;39.12;99504.00;5110396;28;20054;-69
2022/04/19 03:37:56;;;;;;;10.65;4.47;;;;;;;10.93;38.89;99503.00;5092988;28;20486;-66
2022/04/19 03:40:22;;;;;;;12.20;4.43;;;;;;;10.95;39.22;99501.84;5093873;28;20051;-66
2022/04/19 03:42:48;;;;;;;10.88;4.60;;;;;;;11.02;39.13;99515.31;5067121;28;20397;-65
2022/04/19 03:45:14;;;;;;;11.13;4.75;;;;;;;11.08;39.17;99501.38;5075030;28;20093;-66
2022/04/19 03:47:39;;;;;;;7.60;4.50;;;;;;;10.98;39.14;99468.81;5110362;28;20044;-66
2022/04/19 03:50:07;;;;;;;12.13;4.18;;;;;;;11.36;39.08;99502.72;5076697;28;20097;-66
2022/04/19 03:52:34;;;;;;;8.43;4.13;;;;;;;11.49;38.66;99492.41;5076553;28;20054;-65
2022/04/19 03:55:00;;;;;;;8.57;3.85;;;;;;;11.45;38.85;99489.28;5093402;28;20048;-67
2022/04/19 03:57:27;;;;;;;7.43;4.13;;;;;;;11.53;38.69;99496.41;5075640;28;20046;-67
2022/04/19 03:59:54;;;;;;;8.35;4.00;;;;;;;11.61;38.81;99483.06;5076737;28;20134;-70
2022/04/19 04:02:26;;;;;;;6.13;4.03;;;;;;;11.64;38.64;99480.94;5069499;28;20460;-67
2022/04/19 04:04:52;;;;;;;7.10;4.00;;;;;;;11.71;38.46;99500.56;5071686;28;20048;-67
2022/04/19 04:07:19;;;;;;;8.20;4.18;;;;;;;11.56;38.61;99472.13;5054192;28;20463;-67
2022/04/19 04:09:45;;;;;;;11.23;4.20;;;;;;;11.73;38.77;99493.22;5054405;28;20040;-68
2022/04/19 04:12:12;;;;;;;8.98;4.43;;;;;;;11.69;39.07;99456.50;5054315;28;20071;-67
2022/04/19 04:14:40;;;;;;;8.30;4.40;;;;;;;11.83;38.73;99487.72;5055227;28;20044;-67
2022/04/19 04:17:06;;;;;;;7.32;3.70;;;;;;;11.77;38.92;99483.09;5070698;28;20040;-67
2022/04/19 04:19:32;;;;;;;11.90;5.30;;;;;;;11.79;38.85;99481.09;5054228;28;20082;-66
2022/04/19 04:21:58;;;;;;;10.80;4.43;;;;;;;11.77;38.86;99489.25;5090365;28;20048;-67
2022/04/19 04:24:30;;;;;;;9.85;4.70;;;;;;;11.74;39.05;99494.91;5055306;28;20532;-67
2022/04/19 04:26:56;;;;;;;8.00;4.60;;;;;;;11.73;39.32;99484.44;5071536;28;20469;-67
2022/04/19 04:29:25;;;;;;;8.45;3.83;;;;;;;11.76;39.08;99492.09;5054727;28;20058;-66
2022/04/19 04:31:53;;;;;;;8.95;3.92;;;;;;;11.74;39.43;99492.25;5071486;28;20406;-67
2022/04/19 04:34:19;;;;;;;9.10;4.50;;;;;;;11.71;39.29;99495.25;5088450;28;20048;-66
2022/04/19 04:36:48;;;;;;;8.80;4.25;;;;;;;11.77;39.14;99509.69;5088575;28;20509;-66
2022/04/19 04:39:17;;;;;;;9.50;4.03;;;;;;;11.80;39.25;99509.38;5087506;28;20054;-66
2022/04/19 04:42:06;;;;;;;14.93;4.50;;;;;;;11.98;39.01;99501.19;5074033;28;20512;-67
2022/04/19 04:44:32;;;;;;;8.77;3.90;;;;;;;12.10;38.90;99511.28;5054788;28;20046;-68
2022/04/19 04:49:48;;;;;;;8.38;3.75;;;;;;;12.45;38.54;99518.00;5056558;28;20527;-71
2022/04/19 04:52:18;;;;;;;7.95;3.80;;;;;;;12.26;38.70;99513.06;5087726;28;20509;-70
2022/04/19 04:54:45;;;;;;;9.60;3.20;;;;;;;12.33;38.57;99500.75;5053006;28;20531;-71
2022/04/19 04:57:21;;;;;;;7.47;3.55;;;;;;;12.56;38.35;99510.44;5055119;28;20043;-70
2022/04/19 04:59:48;;;;;;;8.80;3.28;;;;;;;12.31;38.60;99495.59;5053142;28;20051;-69
2022/04/19 05:02:14;;;;;;;9.52;3.42;;;;;;;12.31;38.52;99503.56;5069530;28;20051;-71
2022/04/19 05:04:44;;;;;;;5.72;3.08;;;;;;;12.37;38.74;99496.72;5056432;28;20050;-70
2022/04/19 05:07:15;;;;;;;9.13;3.15;;;;;;;12.40;38.67;99489.22;5055561;28;20505;-71
2022/04/19 05:09:46;;;;;;;11.82;3.20;;;;;;;12.37;38.52;99486.06;5040896;28;20039;-70
2022/04/19 05:12:11;;;;;;;9.45;3.55;;;;;;;12.57;38.51;99506.78;5037401;28;20048;-70
2022/04/19 05:14:39;;;;;;;6.72;3.45;;;;;;;12.67;38.33;99511.91;5066030;28;20054;-71
2022/04/19 05:17:06;;;;;;;6.10;3.13;;;;;;;12.59;38.02;99478.13;5055230;28;20444;-70
2022/04/19 05:19:36;;;;;;;11.27;3.38;;;;;;;12.83;38.16;99504.66;5039536;28;20048;-70
2022/04/19 05:22:03;;;;;;;7.22;3.08;;;;;;;12.94;37.92;99509.59;5071793;28;20385;-70
2022/04/19 05:24:29;;;;;;;6.93;3.10;;;;;;;13.03;37.83;99513.06;5058987;28;20583;-70
2022/04/19 05:26:56;;;;;;;10.32;3.20;;;;;;;13.06;37.76;99508.22;5058539;28;20470;-70
2022/04/19 05:29:22;;;;;;;6.07;3.42;;;;;;;13.19;37.62;99504.97;5057993;28;20066;-70
2022/04/19 05:31:48;;;;;;;8.13;4.00;;;;;;;13.30;37.30;99500.03;5074346;28;20043;-70
2022/04/19 05:34:17;;;;;;;5.60;2.95;;;;;;;13.41;37.02;99506.78;5055615;28;20390;-70
2022/04/19 05:36:43;;;;;;;8.00;3.20;;;;;;;13.48;37.19;99500.53;5073859;28;20056;-70
2022/04/19 05:39:10;;;;;;;5.95;3.20;;;;;;;13.58;36.87;99505.63;5075081;28;20093;-71
2022/04/19 05:41:39;;;;;;;6.10;3.30;;;;;;;13.64;36.88;99507.56;5083928;28;20050;-70
2022/04/19 05:44:08;;;;;;;8.00;3.33;;;;;;;13.87;36.50;99532.38;5039226;28;20410;-71
2022/04/19 05:46:36;;;;;;;5.78;3.20;;;;;;;13.87;36.67;99521.69;5066376;28;20480;-73
2022/04/19 05:49:04;;;;;;;8.80;3.30;;;;;;;13.99;36.57;99530.91;5056955;28;20035;-71
2022/04/19 05:51:34;;;;;;;9.15;3.20;;;;;;;14.10;36.53;99521.66;5074722;28;20042;-72
2022/04/19 05:54:02;;;;;;;11.15;3.67;;;;;;;14.05;36.42;99519.53;5074190;28;20124;-71
2022/04/19 05:56:30;;;;;;;6.72;3.78;;;;;;;14.21;36.26;99526.53;5073016;28;20066;-70
2022/04/19 05:58:56;;;;;;;10.13;3.70;;;;;;;14.29;35.80;99521.97;5090272;28;20046;-70
2022/04/19 06:01:22;;;;;;;10.85;4.00;;;;;;;14.42;35.68;99526.66;5082194;28;20079;-70
2022/04/19 06:06:40;;;;;;;9.85;3.78;;;;;;;14.77;35.10;99521.38;5075056;28;20043;-70
2022/04/19 06:09:06;;;;;;;9.18;4.55;;;;;;;14.91;34.56;99523.16;5078224;28;20039;-71
2022/04/19 06:11:32;;;;;;;9.30;3.80;;;;;;;15.10;34.47;99527.91;5102949;27;20039;-70
2022/04/19 06:13:58;;;;;;;12.95;4.00;;;;;;;15.24;34.06;99519.00;5068461;28;20061;-71
2022/04/19 06:16:25;;;;;;;11.15;3.70;;;;;;;15.41;33.60;99518.81;5058352;28;20036;-71
2022/04/19 06:18:54;;;;;;;7.35;3.40;;;;;;;15.57;33.69;99523.88;5071897;28;21053;-70
2022/04/19 06:21:24;;;;;;;8.68;3.60;;;;;;;15.77;33.28;99515.00;5043469;28;20040;-70
2022/04/19 06:23:50;;;;;;;15.63;3.40;;;;;;;15.93;32.70;99529.97;5077614;28;20047;-69
2022/04/19 06:26:16;;;;;;;13.50;3.90;;;;;;;16.05;32.45;99529.19;5110828;28;20058;-69
2022/04/19 06:28:44;;;;;;;15.35;3.90;;;;;;;16.24;32.28;99530.34;5094187;28;20080;-70
2022/04/19 06:31:21;;;;;;;13.43;3.38;;;;;;;16.37;31.90;99536.66;5110174;28;20043;-69
2022/04/19 06:33:55;;;;;;;8.18;3.50;;;;;;;16.40;31.82;99532.75;5076229;28;20189;-69
2022/04/19 06:36:23;;;;;;;6.32;3.15;;;;;;;16.36;31.77;99540.34;5078057;28;20129;-69
2022/04/19 06:38:49;;;;;;;16.90;3.30;;;;;;;16.48;31.89;99546.03;5077946;28;20051;-68
2022/04/19 06:41:15;;;;;;;6.60;3.80;;;;;;;16.51;31.69;99545.63;5059647;28;20036;-68
2022/04/19 06:43:44;;;;;;;5.38;3.25;;;;;;;16.76;31.13;99541.41;5076922;28;20039;-69
2022/04/19 06:46:22;;;;;;;12.20;3.92;;;;;;;17.15;30.74;99538.03;5083585;28;20141;-71
2022/04/19 06:49:06;;;;;;;14.32;3.63;;;;;;;17.38;30.28;99523.22;5109932;28;20043;-68
2022/04/19 06:51:32;;;;;;;9.30;3.13;;;;;;;17.56;30.08;99530.72;5057700;28;20040;-67
2022/04/19 06:53:59;;;;;;;13.02;3.70;;;;;;;17.53;29.75;99536.50;5065454;28;20054;-68
2022/04/19 06:56:35;;;;;;;12.25;3.45;;;;;;;17.39;30.18;99524.06;5109964;28;20899;-70
2022/04/19 06:59:01;;;;;;;10.90;3.65;;;;;;;17.20;30.52;99519.47;5110820;28;20028;-70
2022/04/19 07:01:30;;;;;;;7.45;3.40;;;;;;;16.94;30.73;99533.66;5058156;28;20138;-69
2022/04/19 07:04:16;;;;;;;12.18;3.97;;;;;;;16.84;31.29;99535.88;5087858;28;20083;-69
2022/04/19 07:06:55;;;;;;;15.88;3.83;;;;;;;16.67;31.45;99538.06;5092187;28;20059;-69
2022/04/19 07:09:29;;;;;;;9.95;3.50;;;;;;;16.73;32.12;99542.63;5060265;28;20046;-69
2022/04/19 07:11:56;;;;;;;14.23;3.13;;;;;;;16.09;32.28;99494.81;5090213;28;20131;-68
2022/04/19 07:14:24;;;;;;;9.85;3.35;;;;;;;16.01;32.52;99513.72;5076828;28;20043;-70
2022/04/19 07:17:01;;;;;;;7.85;3.42;;;;;;;16.03;32.87;99547.34;5080260;28;20032;-69
2022/04/19 07:26:37;;;;;;;11.38;3.30;;;;;;;15.93;33.25;99535.31;5077879;28;20396;-69
2022/04/19 07:27:58;;;;;;;13.70;3.08;;;;;;;16.01;33.77;99505.69;5080505;28;20036;-69
2022/04/19 07:30:27;;;;;;;8.70;3.38;;;;;;;15.91;34.01;99543.56;5110744;28;20047;-70
2022/04/19 07:32:52;;;;;;;10.38;3.15;;;;;;;15.84;34.20;99544.50;5093305;28;20039;-69
2022/04/19 07:35:23;;;;;;;8.65;3.25;;;;;;;15.77;34.21;99557.84;5110293;28;20579;-70
2022/04/19 07:37:49;;;;;;;6.07;3.28;;;;;;;15.70;34.46;99553.47;5094192;28;20134;-69
2022/04/19 07:40:15;;;;;;;8.05;3.30;;;;;;;15.61;34.55;99549.22;5093655;28;20468;-69
2022/04/19 07:42:41;;;;;;;9.65;3.50;;;;;;;15.48;35.00;99555.31;5110610;28;20032;-69
2022/04/19 07:45:07;;;;;;;5.63;2.88;;;;;;;15.54;35.01;99551.03;5076554;28;20130;-70
2022/04/19 07:47:34;;;;;;;4.22;3.20;;;;;;;15.46;35.13;99549.31;5110539;28;20052;-69
2022/04/19 07:50:01;;;;;;;10.73;3.47;;;;;;;15.55;35.08;99556.19;5060461;28;20047;-70
2022/04/19 07:52:28;;;;;;;6.90;3.10;;;;;;;15.44;35.53;99555.88;5094123;27;20533;-68
2022/04/19 07:54:54;;;;;;;13.00;3.60;;;;;;;15.41;35.60;99551.72;5093358;28;20071;-68
2022/04/19 07:57:21;;;;;;;5.15;2.90;;;;;;;15.47;35.44;99569.69;5093362;28;20055;-69
2022/04/19 07:59:47;;;;;;;7.90;2.72;;;;;;;15.41;35.60;99567.78;5092974;28;20052;-68
2022/04/19 08:02:15;;;;;;;6.57;2.60;;;;;;;15.27;35.68;99554.44;5110247;28;20075;-68
2022/04/19 08:04:41;;;;;;;6.90;3.10;;;;;;;15.33;36.04;99570.53;5082673;28;20086;-69
2022/04/19 08:07:06;;;;;;;11.50;2.78;;;;;;;15.36;35.82;99572.03;5090004;28;20056;-69
2022/04/19 08:09:33;;;;;;;3.95;2.38;;;;;;;15.25;36.15;99563.47;5072840;28;20052;-67
2022/04/19 08:11:59;;;;;;;9.75;2.70;;;;;;;15.21;36.05;99556.84;5055442;28;20046;-68
2022/04/19 08:14:25;;;;;;;8.27;3.00;;;;;;;15.18;35.93;99554.56;5089621;28;20162;-69
2022/04/19 08:16:50;;;;;;;5.32;2.78;;;;;;;15.06;36.18;99552.56;5039337;28;20068;-69
2022/04/19 08:19:16;;;;;;;8.27;2.88;;;;;;;15.06;36.33;99550.72;5088716;28;20036;-68
2022/04/19 08:21:43;;;;;;;10.63;2.97;;;;;;;15.00;36.63;99558.66;5073013;28;20072;-67
2022/04/19 08:24:09;;;;;;;7.95;3.00;;;;;;;14.88;36.63;99528.88;5056316;28;20040;-69
2022/04/19 08:26:36;;;;;;;5.95;2.60;;;;;;;15.00;36.89;99554.16;5072183;28;20790;-69
2022/04/19 08:29:01;;;;;;;8.30;2.92;;;;;;;15.03;36.80;99556.44;5072389;28;20051;-68
2022/04/19 08:31:27;;;;;;;6.75;3.13;;;;;;;15.01;36.81;99554.97;5054889;28;20156;-70
2022/04/19 08:33:53;;;;;;;8.85;3.03;;;;;;;14.89;37.07;99543.09;5072538;28;20134;-68
2022/04/19 08:36:21;;;;;;;14.32;3.08;;;;;;;14.90;37.25;99544.75;5055744;28;20090;-69
2022/04/19 08:38:47;;;;;;;6.45;2.90;;;;;;;15.02;37.01;99543.25;5039271;28;20481;-67
2022/04/19 08:41:17;;;;;;;17.20;3.67;;;;;;;15.25;36.91;99544.75;5071800;28;20120;-69
2022/04/19 08:43:47;;;;;;;13.32;3.28;;;;;;;15.26;36.79;99532.19;5089101;28;20528;-68
2022/04/19 08:46:14;;;;;;;6.65;3.22;;;;;;;15.39;36.58;99544.91;5056304;28;20055;-68
2022/04/19 08:48:40;;;;;;;8.35;3.00;;;;;;;15.40;36.54;99542.06;5089328;28;20078;-68
2022/04/19 08:51:10;;;;;;;5.70;2.92;;;;;;;15.60;36.50;99551.09;5088059;28;20036;-71
2022/04/19 08:59:06;;;;;;;4.45;3.25;;;;;;;16.02;35.68;99534.94;5072174;28;20067;-69
2022/04/19 09:01:32;;;;;;;21.83;4.18;;;;;;;16.23;35.50;99510.78;5071089;28;20520;-70
2022/04/19 09:03:58;;;;;;;11.13;3.65;;;;;;;16.29;35.14;99531.44;5083590;28;20050;-68
2022/04/19 09:06:54;;;;;;;10.23;3.60;;;;;;;16.59;34.94;99548.97;5074912;28;20259;-70
2022/04/19 09:09:24;;;;;;;6.45;3.47;;;;;;;16.50;35.07;99533.22;5108371;28;20047;-68
2022/04/19 09:11:52;;;;;;;7.38;2.95;;;;;;;16.62;34.98;99527.09;5107945;28;20084;-69
2022/04/19 09:14:25;;;;;;;7.60;3.70;;;;;;;16.60;34.83;99533.72;5108348;28;20610;-70
2022/04/19 09:17:05;;;;;;;12.63;4.30;;;;;;;17.07;34.11;99532.88;5076546;28;20046;-68
2022/04/19 09:19:32;;;;;;;16.00;4.30;;;;;;;17.19;33.69;99539.31;5092919;28;20054;-70
2022/04/19 09:22:00;;;;;;;15.88;4.45;;;;;;;17.47;33.16;99532.78;5108700;28;20044;-69
2022/04/19 09:24:26;;;;;;;7.70;3.85;;;;;;;17.39;33.54;99540.19;5090232;28;20072;-73
2022/04/19 09:26:52;;;;;;;10.45;3.80;;;;;;;17.38;33.55;99538.50;5108088;28;20044;-69
2022/04/19 09:29:27;;;;;;;7.70;3.78;;;;;;;17.62;33.25;99540.66;5091550;28;20062;-71
2022/04/19 09:32:03;;;;;;;12.50;3.90;;;;;;;17.61;33.34;99547.03;5109018;28;20134;-69
2022/04/19 09:34:32;;;;;;;14.20;4.13;;;;;;;17.51;33.59;99511.72;5107580;28;20104;-69
2022/04/19 09:37:12;;;;;;;14.18;3.50;;;;;;;17.98;33.09;99551.81;5109652;28;20056;-68
2022/04/19 09:39:42;;;;;;;9.80;3.20;;;;;;;18.01;33.26;99556.75;5092107;28;20043;-69
2022/04/19 09:42:12;;;;;;;11.35;3.90;;;;;;;18.01;33.08;99554.09;5074786;28;20044;-71
2022/04/19 09:44:39;;;;;;;6.10;2.95;;;;;;;17.88;33.56;99536.09;5108731;28;20051;-70
2022/04/19 09:47:09;;;;;;;8.27;2.95;;;;;;;17.98;33.64;99544.59;5109319;28;20131;-72
2022/04/19 09:49:53;;;;;;;5.27;2.87;;;;;;;18.14;33.37;99551.41;5091788;28;20053;-76
2022/04/19 09:52:22;;;;;;;10.80;2.97;;;;;;;18.12;33.41;99558.84;5109930;28;20079;-69
2022/04/19 09:55:01;;;;;;;6.78;2.70;;;;;;;18.07;33.48;99561.31;5108282;28;20056;-69
2022/04/19 09:57:29;;;;;;;6.40;3.10;;;;;;;17.97;33.58;99566.28;5091039;28;20515;-68
2022/04/19 09:59:54;;;;;;;8.20;2.90;;;;;;;17.83;33.65;99565.47;5108354;28;20100;-68
2022/04/19 10:10:36;;;;;;;13.35;2.92;;;;;;;18.51;32.77;99545.38;5080493;28;20073;-70
2022/04/19 10:13:03;;;;;;;9.27;3.17;;;;;;;18.62;32.34;99539.31;5108340;28;20044;-69
2022/04/19 10:15:34;;;;;;;8.35;2.90;;;;;;;19.10;31.75;99563.97;5091823;28;20051;-67
2022/04/19 10:17:59;;;;;;;11.73;3.00;;;;;;;19.01;31.71;99555.31;5091794;28;20050;-68
2022/04/19 10:20:33;;;;;;;5.20;3.13;;;;;;;19.40;31.37;99571.31;5108588;28;20047;-68
2022/04/19 10:23:04;;;;;;;10.07;3.22;;;;;;;19.58;30.87;99574.09;5075230;28;20132;-70
2022/04/19 10:25:40;;;;;;;6.50;3.47;;;;;;;19.76;30.54;99573.34;5091441;28;20093;-69
2022/04/19 10:28:07;;;;;;;8.98;3.85;;;;;;;19.88;30.43;99571.63;5108417;28;20083;-70
2022/04/19 10:30:35;;;;;;;4.88;3.00;;;;;;;20.14;29.65;99539.06;5108729;28;20527;-70
2022/04/19 10:33:01;;;;;;;5.97;2.92;;;;;;;20.52;29.02;99564.00;5075193;28;20147;-69
2022/04/19 10:35:27;;;;;;;9.80;3.45;;;;;;;21.08;28.47;99559.22;5108177;28;20538;-69
2022/04/19 10:38:21;;;;;;;5.60;3.17;;;;;;;22.26;26.64;99557.44;5091485;28;20039;-68
2022/04/19 10:40:51;;;;;;;8.77;3.22;;;;;;;23.24;25.25;99556.34;5106021;28;20150;-67
2022/04/19 10:43:17;;;;;;;4.97;3.00;;;;;;;24.25;23.74;99548.16;5090745;28;20074;-69
2022/04/19 10:45:46;;;;;;;7.05;3.60;;;;;;;25.75;22.13;99538.38;5057392;28;20470;-67
2022/04/19 10:48:14;;;;;;;10.68;3.20;;;;;;;26.84;20.07;99545.75;5058043;28;20096;-69
2022/04/19 10:50:40;;;;;;;6.07;3.47;;;;;;;27.58;19.43;99549.00;5057958;28;20127;-69
2022/04/19 10:53:07;;;;;;;14.00;3.15;;;;;;;28.77;18.26;99541.88;5091391;28;20116;-69
2022/04/19 10:55:53;;;;;;;10.57;3.00;;;;;;;30.56;16.57;99540.16;5111209;28;20545;-71
2022/04/19 10:58:20;;;;;;;9.50;3.10;;;;;;;31.21;15.56;99538.59;5066967;28;20112;-68
2022/04/19 11:00:51;;;;;;;6.45;2.88;;;;;;;31.27;15.34;99531.94;5094808;28;20048;-70
2022/04/19 11:03:18;;;;;;;7.88;3.08;;;;;;;30.04;16.16;99531.88;5076733;28;20480;-70
2022/04/19 11:05:51;;;;;;;9.38;2.72;;;;;;;28.72;17.48;99520.03;5111265;28;20361;-72
2022/04/19 11:08:26;;;;;;;5.70;2.55;;;;;;;27.46;18.63;99507.53;5111497;28;20062;-70
2022/04/19 11:10:55;;;;;;;4.82;2.65;;;;;;;26.58;19.99;99522.16;5093897;28;20047;-69
2022/04/19 11:13:27;;;;;;;8.35;2.90;;;;;;;25.98;20.64;99522.53;5093243;28;20393;-71
2022/04/19 11:16:05;;;;;;;4.53;2.58;;;;;;;25.15;21.55;99513.25;5071462;28;20054;-71
2022/04/19 11:18:54;;;;;;;10.57;2.55;;;;;;;24.59;22.42;99507.13;5093997;28;20089;-75
2022/04/19 11:21:59;;;;;;;10.48;2.90;;;;;;;24.38;22.37;99507.09;5097079;28;20051;-72
2022/04/19 11:25:03;;;;;;;9.57;2.60;;;;;;;23.92;23.05;99497.41;5093404;28;20067;-71
2022/04/19 11:27:54;;;;;;;8.48;2.90;;;;;;;23.66;23.66;99508.09;5093048;28;20045;-70
2022/04/19 11:30:25;;;;;;;3.00;2.40;;;;;;;23.59;23.55;99507.44;5093239;28;20568;-71
2022/04/19 11:32:57;;;;;;;7.90;2.65;;;;;;;23.87;23.38;99510.06;5093351;28;20044;-68
2022/04/19 11:35:24;;;;;;;12.75;2.70;;;;;;;24.09;22.89;99505.56;5091157;28;20097;-68
2022/04/19 11:37:49;;;;;;;7.20;2.55;;;;;;;24.18;22.78;99504.09;5093002;28;20043;-70
2022/04/19 11:48:41;;;;;;;5.80;3.28;;;;;;;23.70;23.42;99496.50;5096054;28;20050;-72
2022/04/19 11:51:08;;;;;;;10.35;3.33;;;;;;;23.45;23.86;99490.66;5110437;28;20047;-72
2022/04/19 11:53:34;;;;;;;6.10;2.70;;;;;;;23.18;23.74;99497.72;5110062;28;20071;-71
2022/04/19 11:56:00;;;;;;;9.18;2.95;;;;;;;23.10;23.89;99501.63;5076154;28;20090;-71
2022/04/19 11:58:26;;;;;;;12.13;3.38;;;;;;;23.21;24.03;99506.19;5093025;28;20039;-72
2022/04/19 12:01:09;;;;;;;8.77;3.10;;;;;;;23.42;23.58;99493.03;5093222;28;20050;-72
2022/04/19 12:03:36;;;;;;;6.47;2.70;;;;;;;23.38;23.98;99503.53;5109989;28;20047;-76
2022/04/19 12:06:18;;;;;;;11.45;3.15;;;;;;;23.46;23.52;99505.03;5092426;28;20039;-71
2022/04/19 12:08:51;;;;;;;10.30;2.90;;;;;;;23.06;23.74;99488.81;5093209;28;20039;-74
2022/04/19 12:11:25;;;;;;;11.25;3.00;;;;;;;23.40;23.58;99512.25;5093010;28;20043;-73
2022/04/19 12:13:51;;;;;;;9.68;2.88;;;;;;;23.27;23.85;99515.25;5092825;28;20087;-71
2022/04/19 12:16:37;;;;;;;11.43;3.25;;;;;;;23.39;23.57;99507.88;5109517;28;20491;-72
2022/04/19 12:19:12;;;;;;;9.13;1.95;;;;;;;23.40;23.60;99506.00;5110042;28;20059;-69
2022/04/19 12:21:45;;;;;;;5.93;2.08;;;;;;;23.31;23.57;99499.34;5073407;28;20049;-70
2022/04/19 12:24:21;;;;;;;3.35;1.88;;;;;;;23.17;24.18;99501.50;5103470;28;20126;-70